sensor_id;sensor_type;location;lat;lon;timestamp;pressure;altitude;pressure_sealevel;temperature;humidity
72414;BME280;60995;52.154;4.498;2023-04-28T00:00:57;101347.25;;;11.06;48.46
72414;BME280;60995;52.154;4.498;2023-04-28T00:03:14;101354.38;;;11.19;48.57
72414;BME280;60995;52.154;4.498;2023-04-28T00:05:30;101345.13;;;11.21;47.73
72414;BME280;60995;52.154;4.498;2023-04-28T00:07:46;101344.06;;;11.01;49.04
72414;BME280;60995;52.154;4.498;2023-04-28T00:10:03;101347.03;;;10.98;48.91
72414;BME280;60995;52.154;4.498;2023-04-28T00:12:19;101343.56;;;11.07;48.73
72414;BME280;60995;52.154;4.498;2023-04-28T00:14:36;101329.28;;;10.94;48.87
72414;BME280;60995;52.154;4.498;2023-04-28T00:16:52;101331.66;;;10.87;49.09
72414;BME280;60995;52.154;4.498;2023-04-28T00:19:11;101327.63;;;11.03;48.90
72414;BME280;60995;52.154;4.498;2023-04-28T00:21:28;101329.50;;;11.02;48.94
72414;BME280;60995;52.154;4.498;2023-04-28T00:23:44;101326.25;;;11.20;48.17
72414;BME280;60995;52.154;4.498;2023-04-28T00:26:00;101322.59;;;10.98;48.98
72414;BME280;60995;52.154;4.498;2023-04-28T00:28:17;101324.53;;;11.07;48.58
72414;BME280;60995;52.154;4.498;2023-04-28T00:30:33;101305.75;;;11.16;48.68
72414;BME280;60995;52.154;4.498;2023-04-28T00:32:49;101306.22;;;11.21;48.98
72414;BME280;60995;52.154;4.498;2023-04-28T00:35:06;101307.78;;;11.02;49.64
72414;BME280;60995;52.154;4.498;2023-04-28T00:37:23;101291.09;;;11.07;49.61
72414;BME280;60995;52.154;4.498;2023-04-28T00:39:39;101293.81;;;10.74;50.68
72414;BME280;60995;52.154;4.498;2023-04-28T00:41:56;101292.53;;;10.90;50.00
72414;BME280;60995;52.154;4.498;2023-04-28T00:44:12;101282.19;;;10.84;50.59
72414;BME280;60995;52.154;4.498;2023-04-28T00:46:30;101286.72;;;11.16;49.84
72414;BME280;60995;52.154;4.498;2023-04-28T00:48:48;101280.28;;;10.96;50.55
72414;BME280;60995;52.154;4.498;2023-04-28T00:51:05;101280.19;;;10.86;50.65
72414;BME280;60995;52.154;4.498;2023-04-28T00:53:22;101274.72;;;10.97;50.32
72414;BME280;60995;52.154;4.498;2023-04-28T00:55:39;101269.09;;;10.89;50.55
72414;BME280;60995;52.154;4.498;2023-04-28T00:57:56;101260.44;;;10.95;50.53
72414;BME280;60995;52.154;4.498;2023-04-28T01:00:13;101258.44;;;10.97;50.25
72414;BME280;60995;52.154;4.498;2023-04-28T01:02:34;101249.84;;;10.81;50.79
72414;BME280;60995;52.154;4.498;2023-04-28T01:04:51;101258.28;;;10.66;50.93
72414;BME280;60995;52.154;4.498;2023-04-28T01:07:09;101252.97;;;10.76;50.29
72414;BME280;60995;52.154;4.498;2023-04-28T01:09:25;101254.69;;;10.77;50.53
72414;BME280;60995;52.154;4.498;2023-04-28T01:11:41;101246.13;;;10.82;50.38
72414;BME280;60995;52.154;4.498;2023-04-28T01:13:58;101249.03;;;11.01;50.42
72414;BME280;60995;52.154;4.498;2023-04-28T01:16:14;101245.59;;;10.99;50.06
72414;BME280;60995;52.154;4.498;2023-04-28T01:18:31;101239.41;;;10.97;50.09
72414;BME280;60995;52.154;4.498;2023-04-28T01:20:48;101250.56;;;10.94;49.63
72414;BME280;60995;52.154;4.498;2023-04-28T01:23:04;101246.06;;;10.72;50.81
72414;BME280;60995;52.154;4.498;2023-04-28T01:25:20;101233.69;;;10.79;50.50
72414;BME280;60995;52.154;4.498;2023-04-28T01:27:37;101235.56;;;10.79;50.48
72414;BME280;60995;52.154;4.498;2023-04-28T01:29:53;101236.28;;;10.81;50.21
72414;BME280;60995;52.154;4.498;2023-04-28T01:32:09;101231.31;;;10.86;50.49
72414;BME280;60995;52.154;4.498;2023-04-28T01:34:25;101219.53;;;10.75;50.49
72414;BME280;60995;52.154;4.498;2023-04-28T01:36:42;101220.59;;;11.05;49.72
72414;BME280;60995;52.154;4.498;2023-04-28T01:38:58;101209.09;;;10.92;50.03
72414;BME280;60995;52.154;4.498;2023-04-28T01:41:15;101214.03;;;10.87;50.52
72414;BME280;60995;52.154;4.498;2023-04-28T01:43:31;101212.41;;;10.63;50.78
72414;BME280;60995;52.154;4.498;2023-04-28T01:45:47;101218.09;;;10.60;50.40
72414;BME280;60995;52.154;4.498;2023-04-28T01:48:03;101220.19;;;10.68;51.11
72414;BME280;60995;52.154;4.498;2023-04-28T01:50:20;101203.59;;;10.82;50.19
72414;BME280;60995;52.154;4.498;2023-04-28T01:52:36;101197.75;;;10.87;49.90
72414;BME280;60995;52.154;4.498;2023-04-28T01:54:53;101197.81;;;10.75;50.57
72414;BME280;60995;52.154;4.498;2023-04-28T01:57:10;101201.25;;;10.78;50.63
72414;BME280;60995;52.154;4.498;2023-04-28T01:59:26;101194.97;;;10.77;50.49
72414;BME280;60995;52.154;4.498;2023-04-28T02:01:42;101199.00;;;10.83;50.91
72414;BME280;60995;52.154;4.498;2023-04-28T02:03:58;101197.66;;;10.56;51.47
72414;BME280;60995;52.154;4.498;2023-04-28T02:06:18;101185.25;;;10.74;50.96
72414;BME280;60995;52.154;4.498;2023-04-28T02:08:34;101179.69;;;10.97;50.16
72414;BME280;60995;52.154;4.498;2023-04-28T02:10:50;101169.34;;;10.91;50.20
72414;BME280;60995;52.154;4.498;2023-04-28T02:13:07;101174.78;;;10.91;50.10
72414;BME280;60995;52.154;4.498;2023-04-28T02:15:23;101159.56;;;10.79;50.46
72414;BME280;60995;52.154;4.498;2023-04-28T02:17:39;101159.66;;;10.56;50.95
72414;BME280;60995;52.154;4.498;2023-04-28T02:19:56;101153.78;;;10.72;50.93
72414;BME280;60995;52.154;4.498;2023-04-28T02:22:12;101154.91;;;10.90;50.64
72414;BME280;60995;52.154;4.498;2023-04-28T02:24:28;101160.94;;;10.73;51.10
72414;BME280;60995;52.154;4.498;2023-04-28T02:26:44;101158.63;;;10.68;50.90
72414;BME280;60995;52.154;4.498;2023-04-28T02:29:01;101155.84;;;10.80;50.94
72414;BME280;60995;52.154;4.498;2023-04-28T02:31:19;101146.59;;;10.82;51.06
72414;BME280;60995;52.154;4.498;2023-04-28T02:33:36;101151.78;;;10.74;51.19
72414;BME280;60995;52.154;4.498;2023-04-28T02:36:00;101143.06;;;10.70;50.92
72414;BME280;60995;52.154;4.498;2023-04-28T02:38:17;101148.53;;;10.59;51.89
72414;BME280;60995;52.154;4.498;2023-04-28T02:40:34;101146.69;;;10.59;51.59
72414;BME280;60995;52.154;4.498;2023-04-28T02:42:50;101139.94;;;10.54;52.05
72414;BME280;60995;52.154;4.498;2023-04-28T02:45:06;101143.94;;;10.38;52.75
72414;BME280;60995;52.154;4.498;2023-04-28T02:47:23;101147.56;;;10.60;52.13
72414;BME280;60995;52.154;4.498;2023-04-28T02:49:39;101137.00;;;10.46;52.04
72414;BME280;60995;52.154;4.498;2023-04-28T02:51:55;101139.84;;;10.44;52.52
72414;BME280;60995;52.154;4.498;2023-04-28T02:54:11;101126.91;;;10.36;52.56
72414;BME280;60995;52.154;4.498;2023-04-28T02:56:28;101124.69;;;10.41;52.57
72414;BME280;60995;52.154;4.498;2023-04-28T02:58:47;101119.53;;;10.27;52.67
72414;BME280;60995;52.154;4.498;2023-04-28T03:01:04;101115.09;;;10.37;52.34
72414;BME280;60995;52.154;4.498;2023-04-28T03:03:20;101124.44;;;10.45;52.36
72414;BME280;60995;52.154;4.498;2023-04-28T03:05:36;101121.69;;;10.56;52.27
72414;BME280;60995;52.154;4.498;2023-04-28T03:07:53;101113.94;;;10.72;51.58
72414;BME280;60995;52.154;4.498;2023-04-28T03:10:09;101115.56;;;10.42;52.54
72414;BME280;60995;52.154;4.498;2023-04-28T03:12:25;101106.56;;;10.31;52.89
72414;BME280;60995;52.154;4.498;2023-04-28T03:14:41;101092.81;;;10.55;52.66
72414;BME280;60995;52.154;4.498;2023-04-28T03:16:57;101083.75;;;10.33;52.56
72414;BME280;60995;52.154;4.498;2023-04-28T03:19:14;101082.91;;;10.33;53.04
72414;BME280;60995;52.154;4.498;2023-04-28T03:21:30;101086.88;;;10.29;53.08
72414;BME280;60995;52.154;4.498;2023-04-28T03:23:47;101082.22;;;10.52;52.58
72414;BME280;60995;52.154;4.498;2023-04-28T03:26:03;101081.38;;;10.51;52.70
72414;BME280;60995;52.154;4.498;2023-04-28T03:28:19;101075.59;;;10.45;52.90
72414;BME280;60995;52.154;4.498;2023-04-28T03:30:35;101069.25;;;10.76;52.51
72414;BME280;60995;52.154;4.498;2023-04-28T03:32:52;101069.81;;;10.70;52.22
72414;BME280;60995;52.154;4.498;2023-04-28T03:35:08;101066.81;;;10.52;53.24
72414;BME280;60995;52.154;4.498;2023-04-28T03:37:24;101064.28;;;10.28;53.84
72414;BME280;60995;52.154;4.498;2023-04-28T03:39:41;101059.28;;;10.23;54.09
72414;BME280;60995;52.154;4.498;2023-04-28T03:41:57;101061.38;;;10.52;53.42
72414;BME280;60995;52.154;4.498;2023-04-28T03:44:13;101062.50;;;10.50;53.73
72414;BME280;60995;52.154;4.498;2023-04-28T03:46:29;101059.66;;;10.51;52.97
72414;BME280;60995;52.154;4.498;2023-04-28T03:48:46;101058.25;;;10.36;52.80
72414;BME280;60995;52.154;4.498;2023-04-28T03:51:02;101053.25;;;10.52;51.92
72414;BME280;60995;52.154;4.498;2023-04-28T03:53:18;101059.94;;;10.69;51.10
72414;BME280;60995;52.154;4.498;2023-04-28T03:55:35;101052.38;;;10.52;51.74
72414;BME280;60995;52.154;4.498;2023-04-28T03:57:51;101051.19;;;10.66;51.49
72414;BME280;60995;52.154;4.498;2023-04-28T04:00:08;101049.59;;;10.42;51.60
72414;BME280;60995;52.154;4.498;2023-04-28T04:02:25;101044.25;;;10.73;51.35
72414;BME280;60995;52.154;4.498;2023-04-28T04:04:41;101042.31;;;10.64;51.22
72414;BME280;60995;52.154;4.498;2023-04-28T04:06:58;101042.72;;;10.59;51.48
72414;BME280;60995;52.154;4.498;2023-04-28T04:09:14;101035.91;;;10.43;51.95
72414;BME280;60995;52.154;4.498;2023-04-28T04:11:31;101037.56;;;10.77;51.46
72414;BME280;60995;52.154;4.498;2023-04-28T04:13:47;101038.72;;;10.84;51.49
72414;BME280;60995;52.154;4.498;2023-04-28T04:16:03;101039.03;;;10.91;51.62
72414;BME280;60995;52.154;4.498;2023-04-28T04:18:20;101043.69;;;11.00;51.38
72414;BME280;60995;52.154;4.498;2023-04-28T04:20:37;101045.03;;;10.85;52.30
72414;BME280;60995;52.154;4.498;2023-04-28T04:22:53;101043.81;;;10.78;52.28
72414;BME280;60995;52.154;4.498;2023-04-28T04:25:09;101041.84;;;10.80;52.87
72414;BME280;60995;52.154;4.498;2023-04-28T04:27:25;101047.63;;;10.96;51.57
72414;BME280;60995;52.154;4.498;2023-04-28T04:29:42;101050.47;;;10.85;52.09
72414;BME280;60995;52.154;4.498;2023-04-28T04:31:58;101058.38;;;10.98;51.67
72414;BME280;60995;52.154;4.498;2023-04-28T04:34:14;101055.16;;;11.14;51.37
72414;BME280;60995;52.154;4.498;2023-04-28T04:36:31;101046.13;;;11.03;51.43
72414;BME280;60995;52.154;4.498;2023-04-28T04:38:47;101053.66;;;11.00;52.06
72414;BME280;60995;52.154;4.498;2023-04-28T04:41:04;101050.94;;;11.00;52.57
72414;BME280;60995;52.154;4.498;2023-04-28T04:43:20;101054.50;;;10.69;54.23
72414;BME280;60995;52.154;4.498;2023-04-28T04:45:36;101055.22;;;10.50;54.73
72414;BME280;60995;52.154;4.498;2023-04-28T04:47:53;101041.94;;;10.47;56.57
72414;BME280;60995;52.154;4.498;2023-04-28T04:50:10;101048.34;;;10.14;58.30
72414;BME280;60995;52.154;4.498;2023-04-28T04:52:26;101037.16;;;10.07;59.33
72414;BME280;60995;52.154;4.498;2023-04-28T04:54:44;101032.84;;;9.60;61.35
72414;BME280;60995;52.154;4.498;2023-04-28T04:57:01;101017.84;;;9.45;63.76
72414;BME280;60995;52.154;4.498;2023-04-28T04:59:17;100997.06;;;9.46;65.24
72414;BME280;60995;52.154;4.498;2023-04-28T05:01:33;100990.69;;;9.35;66.56
72414;BME280;60995;52.154;4.498;2023-04-28T05:03:50;100992.06;;;9.30;67.56
72414;BME280;60995;52.154;4.498;2023-04-28T05:06:07;100987.13;;;9.23;67.35
72414;BME280;60995;52.154;4.498;2023-04-28T05:08:23;100996.25;;;8.88;67.79
72414;BME280;60995;52.154;4.498;2023-04-28T05:10:39;100986.91;;;9.04;68.42
72414;BME280;60995;52.154;4.498;2023-04-28T05:12:55;100998.84;;;9.13;68.35
72414;BME280;60995;52.154;4.498;2023-04-28T05:15:12;100990.47;;;9.04;68.43
72414;BME280;60995;52.154;4.498;2023-04-28T05:17:28;100987.63;;;9.17;68.44
72414;BME280;60995;52.154;4.498;2023-04-28T05:19:44;100981.72;;;9.23;68.62
72414;BME280;60995;52.154;4.498;2023-04-28T05:22:01;100971.53;;;9.16;68.53
72414;BME280;60995;52.154;4.498;2023-04-28T05:24:17;100962.91;;;9.22;68.38
72414;BME280;60995;52.154;4.498;2023-04-28T05:26:36;100957.34;;;9.35;68.08
72414;BME280;60995;52.154;4.498;2023-04-28T05:28:53;100966.53;;;9.43;67.91
72414;BME280;60995;52.154;4.498;2023-04-28T05:31:09;100977.63;;;9.40;67.41
72414;BME280;60995;52.154;4.498;2023-04-28T05:33:25;100978.78;;;9.70;66.52
72414;BME280;60995;52.154;4.498;2023-04-28T05:35:42;100977.50;;;9.86;65.90
72414;BME280;60995;52.154;4.498;2023-04-28T05:37:58;100972.06;;;9.86;65.32
72414;BME280;60995;52.154;4.498;2023-04-28T05:40:14;100976.44;;;9.98;65.18
72414;BME280;60995;52.154;4.498;2023-04-28T05:42:31;100975.25;;;9.91;65.09
72414;BME280;60995;52.154;4.498;2023-04-28T05:44:47;100990.88;;;10.20;64.71
72414;BME280;60995;52.154;4.498;2023-04-28T05:47:03;100985.22;;;10.12;65.28
72414;BME280;60995;52.154;4.498;2023-04-28T05:49:19;100993.72;;;10.18;65.26
72414;BME280;60995;52.154;4.498;2023-04-28T05:51:36;100997.75;;;10.35;65.61
72414;BME280;60995;52.154;4.498;2023-04-28T05:53:53;100994.53;;;10.51;64.79
72414;BME280;60995;52.154;4.498;2023-04-28T05:56:09;100983.38;;;10.45;64.60
72414;BME280;60995;52.154;4.498;2023-04-28T05:58:26;100988.28;;;10.51;64.58
72414;BME280;60995;52.154;4.498;2023-04-28T06:00:42;100993.09;;;10.47;65.76
72414;BME280;60995;52.154;4.498;2023-04-28T06:02:58;100995.06;;;10.45;65.43
72414;BME280;60995;52.154;4.498;2023-04-28T06:05:15;101003.19;;;10.24;66.34
72414;BME280;60995;52.154;4.498;2023-04-28T06:07:31;100997.31;;;10.40;66.86
72414;BME280;60995;52.154;4.498;2023-04-28T06:09:47;100985.56;;;10.51;67.13
72414;BME280;60995;52.154;4.498;2023-04-28T06:12:05;100988.34;;;10.39;66.90
72414;BME280;60995;52.154;4.498;2023-04-28T06:14:22;100982.41;;;10.34;67.24
72414;BME280;60995;52.154;4.498;2023-04-28T06:16:40;100986.94;;;10.45;67.37
72414;BME280;60995;52.154;4.498;2023-04-28T06:18:57;100986.22;;;10.95;66.99
72414;BME280;60995;52.154;4.498;2023-04-28T06:21:13;100977.63;;;10.90;66.39
72414;BME280;60995;52.154;4.498;2023-04-28T06:23:30;100974.69;;;10.72;67.54
72414;BME280;60995;52.154;4.498;2023-04-28T06:25:47;100971.44;;;10.57;68.49
72414;BME280;60995;52.154;4.498;2023-04-28T06:28:03;100979.50;;;10.68;68.39
72414;BME280;60995;52.154;4.498;2023-04-28T06:30:21;100974.06;;;10.68;69.07
72414;BME280;60995;52.154;4.498;2023-04-28T06:32:38;100974.34;;;10.65;69.93
72414;BME280;60995;52.154;4.498;2023-04-28T06:34:55;100968.94;;;10.65;69.95
72414;BME280;60995;52.154;4.498;2023-04-28T06:37:13;100966.84;;;10.79;69.60
72414;BME280;60995;52.154;4.498;2023-04-28T06:39:29;100965.41;;;10.74;69.23
72414;BME280;60995;52.154;4.498;2023-04-28T06:41:45;100961.00;;;10.83;70.00
72414;BME280;60995;52.154;4.498;2023-04-28T06:44:02;100969.63;;;10.98;69.17
72414;BME280;60995;52.154;4.498;2023-04-28T06:46:18;100962.44;;;11.28;69.32
72414;BME280;60995;52.154;4.498;2023-04-28T06:48:35;100971.97;;;11.13;68.92
72414;BME280;60995;52.154;4.498;2023-04-28T06:50:51;100963.13;;;11.20;68.87
72414;BME280;60995;52.154;4.498;2023-04-28T06:53:07;100967.59;;;11.21;69.66
72414;BME280;60995;52.154;4.498;2023-04-28T06:55:24;100965.38;;;11.05;70.13
72414;BME280;60995;52.154;4.498;2023-04-28T06:57:42;100968.19;;;10.94;70.39
72414;BME280;60995;52.154;4.498;2023-04-28T06:59:59;100972.81;;;11.13;69.83
72414;BME280;60995;52.154;4.498;2023-04-28T07:02:15;100958.31;;;11.34;69.58
72414;BME280;60995;52.154;4.498;2023-04-28T07:04:32;100963.66;;;11.04;70.31
72414;BME280;60995;52.154;4.498;2023-04-28T07:06:48;100969.81;;;11.06;70.18
72414;BME280;60995;52.154;4.498;2023-04-28T07:09:04;100968.06;;;11.05;70.75
72414;BME280;60995;52.154;4.498;2023-04-28T07:11:21;100969.59;;;11.29;70.92
72414;BME280;60995;52.154;4.498;2023-04-28T07:13:38;100971.50;;;11.68;69.27
72414;BME280;60995;52.154;4.498;2023-04-28T07:15:54;100973.22;;;11.69;68.91
72414;BME280;60995;52.154;4.498;2023-04-28T07:18:11;100976.19;;;10.96;70.86
72414;BME280;60995;52.154;4.498;2023-04-28T07:20:27;100970.28;;;11.21;71.40
72414;BME280;60995;52.154;4.498;2023-04-28T07:22:44;100965.34;;;11.46;71.50
72414;BME280;60995;52.154;4.498;2023-04-28T07:25:00;100965.75;;;11.41;71.09
72414;BME280;60995;52.154;4.498;2023-04-28T07:27:16;100965.09;;;11.59;70.60
72414;BME280;60995;52.154;4.498;2023-04-28T07:29:32;100958.50;;;11.62;70.45
72414;BME280;60995;52.154;4.498;2023-04-28T07:31:49;100964.66;;;11.54;71.28
72414;BME280;60995;52.154;4.498;2023-04-28T07:34:06;100965.09;;;11.59;70.97
72414;BME280;60995;52.154;4.498;2023-04-28T07:36:22;100962.88;;;11.33;71.68
72414;BME280;60995;52.154;4.498;2023-04-28T07:38:38;100965.91;;;11.50;71.93
72414;BME280;60995;52.154;4.498;2023-04-28T07:40:55;100969.53;;;11.70;72.16
72414;BME280;60995;52.154;4.498;2023-04-28T07:43:11;100960.09;;;11.64;72.53
72414;BME280;60995;52.154;4.498;2023-04-28T07:45:27;100970.38;;;11.90;71.88
72414;BME280;60995;52.154;4.498;2023-04-28T07:47:43;100963.81;;;11.83;72.67
72414;BME280;60995;52.154;4.498;2023-04-28T07:50:00;100960.53;;;11.89;71.35
72414;BME280;60995;52.154;4.498;2023-04-28T07:52:20;100957.63;;;12.39;71.44
72414;BME280;60995;52.154;4.498;2023-04-28T07:54:36;100952.59;;;12.45;70.68
72414;BME280;60995;52.154;4.498;2023-04-28T07:56:52;100960.19;;;12.51;70.91
72414;BME280;60995;52.154;4.498;2023-04-28T07:59:11;100968.59;;;12.57;72.02
72414;BME280;60995;52.154;4.498;2023-04-28T08:01:28;100954.44;;;12.54;71.97
72414;BME280;60995;52.154;4.498;2023-04-28T08:03:44;100968.66;;;12.38;71.92
72414;BME280;60995;52.154;4.498;2023-04-28T08:06:01;100964.94;;;11.90;74.47
72414;BME280;60995;52.154;4.498;2023-04-28T08:08:17;100972.81;;;11.73;75.71
72414;BME280;60995;52.154;4.498;2023-04-28T08:10:33;100969.06;;;11.74;75.75
72414;BME280;60995;52.154;4.498;2023-04-28T08:12:50;100975.00;;;12.09;76.57
72414;BME280;60995;52.154;4.498;2023-04-28T08:15:08;100968.66;;;12.38;74.86
72414;BME280;60995;52.154;4.498;2023-04-28T08:17:25;100974.72;;;12.02;75.50
72414;BME280;60995;52.154;4.498;2023-04-28T08:19:41;100971.56;;;11.97;77.07
72414;BME280;60995;52.154;4.498;2023-04-28T08:22:00;100963.25;;;12.08;77.64
72414;BME280;60995;52.154;4.498;2023-04-28T08:24:20;100972.25;;;12.29;76.42
72414;BME280;60995;52.154;4.498;2023-04-28T08:26:37;100962.78;;;12.33;77.10
72414;BME280;60995;52.154;4.498;2023-04-28T08:28:53;100965.81;;;12.30;77.64
72414;BME280;60995;52.154;4.498;2023-04-28T08:31:09;100955.19;;;12.36;78.85
72414;BME280;60995;52.154;4.498;2023-04-28T08:33:25;100957.16;;;12.54;79.46
72414;BME280;60995;52.154;4.498;2023-04-28T08:35:42;100961.44;;;12.66;78.81
72414;BME280;60995;52.154;4.498;2023-04-28T08:37:58;100959.78;;;12.26;79.35
72414;BME280;60995;52.154;4.498;2023-04-28T08:40:14;100955.00;;;12.95;79.49
72414;BME280;60995;52.154;4.498;2023-04-28T08:42:31;100948.97;;;13.01;78.42
72414;BME280;60995;52.154;4.498;2023-04-28T08:44:50;100957.94;;;13.12;78.01
72414;BME280;60995;52.154;4.498;2023-04-28T08:47:14;100949.44;;;13.15;78.06
72414;BME280;60995;52.154;4.498;2023-04-28T08:49:33;100948.66;;;13.04;79.19
72414;BME280;60995;52.154;4.498;2023-04-28T08:51:58;100950.56;;;13.22;79.02
72414;BME280;60995;52.154;4.498;2023-04-28T08:54:16;100942.16;;;13.43;78.03
72414;BME280;60995;52.154;4.498;2023-04-28T08:56:33;100948.03;;;13.66;78.27
72414;BME280;60995;52.154;4.498;2023-04-28T08:58:52;100943.19;;;13.60;78.42
72414;BME280;60995;52.154;4.498;2023-04-28T09:01:09;100937.91;;;13.77;77.60
72414;BME280;60995;52.154;4.498;2023-04-28T09:03:26;100943.66;;;13.28;78.51
72414;BME280;60995;52.154;4.498;2023-04-28T09:05:42;100955.84;;;12.96;80.94
72414;BME280;60995;52.154;4.498;2023-04-28T09:08:01;100949.31;;;13.44;80.97
72414;BME280;60995;52.154;4.498;2023-04-28T09:10:20;100944.34;;;13.57;80.38
72414;BME280;60995;52.154;4.498;2023-04-28T09:12:38;100937.03;;;13.76;79.08
72414;BME280;60995;52.154;4.498;2023-04-28T09:14:57;100948.94;;;13.93;79.10
72414;BME280;60995;52.154;4.498;2023-04-28T09:17:14;100930.44;;;14.05;78.01
72414;BME280;60995;52.154;4.498;2023-04-28T09:19:35;100932.09;;;14.16;78.35
72414;BME280;60995;52.154;4.498;2023-04-28T09:21:55;100928.78;;;14.30;77.61
72414;BME280;60995;52.154;4.498;2023-04-28T09:26:49;100928.50;;;14.42;77.47
72414;BME280;60995;52.154;4.498;2023-04-28T09:29:11;100924.28;;;14.21;77.65
72414;BME280;60995;52.154;4.498;2023-04-28T09:31:28;100925.34;;;14.54;77.92
72414;BME280;60995;52.154;4.498;2023-04-28T09:34:05;100928.19;;;14.45;77.27
72414;BME280;60995;52.154;4.498;2023-04-28T09:36:28;100925.28;;;14.72;77.58
72414;BME280;60995;52.154;4.498;2023-04-28T09:38:45;100922.13;;;14.85;76.37
72414;BME280;60995;52.154;4.498;2023-04-28T09:41:01;100920.41;;;14.58;76.84
72414;BME280;60995;52.154;4.498;2023-04-28T09:45:44;100921.31;;;14.93;76.39
72414;BME280;60995;52.154;4.498;2023-04-28T09:48:08;100926.06;;;14.91;75.94
72414;BME280;60995;52.154;4.498;2023-04-28T09:50:39;100920.56;;;14.83;75.75
72414;BME280;60995;52.154;4.498;2023-04-28T09:52:56;100918.13;;;15.06;75.57
72414;BME280;60995;52.154;4.498;2023-04-28T09:55:13;100916.81;;;15.35;74.89
72414;BME280;60995;52.154;4.498;2023-04-28T09:57:32;100918.72;;;15.51;73.96
72414;BME280;60995;52.154;4.498;2023-04-28T09:59:51;100923.84;;;15.46;74.15
72414;BME280;60995;52.154;4.498;2023-04-28T10:02:08;100921.09;;;15.29;74.36
72414;BME280;60995;52.154;4.498;2023-04-28T10:04:25;100921.09;;;15.37;75.14
72414;BME280;60995;52.154;4.498;2023-04-28T10:06:42;100922.13;;;15.45;74.41
72414;BME280;60995;52.154;4.498;2023-04-28T10:08:59;100919.84;;;15.83;73.70
72414;BME280;60995;52.154;4.498;2023-04-28T10:11:16;100926.84;;;15.94;73.39
72414;BME280;60995;52.154;4.498;2023-04-28T10:13:34;100920.84;;;15.90;73.09
72414;BME280;60995;52.154;4.498;2023-04-28T10:15:51;100919.16;;;15.81;72.97
72414;BME280;60995;52.154;4.498;2023-04-28T10:18:13;100926.28;;;15.57;73.73
72414;BME280;60995;52.154;4.498;2023-04-28T10:20:31;100926.59;;;15.46;75.19
72414;BME280;60995;52.154;4.498;2023-04-28T10:25:36;100935.13;;;15.34;76.41
72414;BME280;60995;52.154;4.498;2023-04-28T10:27:53;100937.84;;;15.34;76.76
72414;BME280;60995;52.154;4.498;2023-04-28T10:32:30;100946.00;;;15.26;77.75
72414;BME280;60995;52.154;4.498;2023-04-28T10:34:48;100944.88;;;14.94;79.32
72414;BME280;60995;52.154;4.498;2023-04-28T10:37:04;100947.53;;;14.86;79.94
72414;BME280;60995;52.154;4.498;2023-04-28T10:39:20;100945.13;;;14.75;80.71
72414;BME280;60995;52.154;4.498;2023-04-28T10:41:37;100952.00;;;14.61;81.39
72414;BME280;60995;52.154;4.498;2023-04-28T10:43:53;100950.69;;;14.65;81.69
72414;BME280;60995;52.154;4.498;2023-04-28T10:46:09;100957.06;;;14.74;81.85
72414;BME280;60995;52.154;4.498;2023-04-28T10:53:19;100960.44;;;14.67;81.30
72414;BME280;60995;52.154;4.498;2023-04-28T10:55:35;100957.25;;;14.54;81.79
72414;BME280;60995;52.154;4.498;2023-04-28T11:00:47;100954.34;;;14.29;81.95
72414;BME280;60995;52.154;4.498;2023-04-28T11:03:05;100955.69;;;14.69;81.63
72414;BME280;60995;52.154;4.498;2023-04-28T11:05:22;100956.81;;;14.93;80.73
72414;BME280;60995;52.154;4.498;2023-04-28T11:07:38;100957.84;;;14.92;nan
72414;BME280;60995;52.154;4.498;2023-04-28T11:09:54;100945.22;;;14.65;80.29
72414;BME280;60995;52.154;4.498;2023-04-28T11:12:10;100958.97;;;14.55;81.32
72414;BME280;60995;52.154;4.498;2023-04-28T11:19:27;100963.84;;;15.04;79.56
72414;BME280;60995;52.154;4.498;2023-04-28T11:21:48;100948.28;;;14.96;80.25
72414;BME280;60995;52.154;4.498;2023-04-28T11:24:09;100961.56;;;14.91;79.83
72414;BME280;60995;52.154;4.498;2023-04-28T11:26:26;100957.47;;;14.87;80.06
72414;BME280;60995;52.154;4.498;2023-04-28T11:28:48;100960.56;;;14.92;80.33
72414;BME280;60995;52.154;4.498;2023-04-28T11:31:15;100959.19;;;14.88;80.56
72414;BME280;60995;52.154;4.498;2023-04-28T11:33:38;100966.63;;;14.78;80.75
72414;BME280;60995;52.154;4.498;2023-04-28T11:35:56;100965.94;;;14.76;81.39
72414;BME280;60995;52.154;4.498;2023-04-28T11:38:13;100967.22;;;14.89;80.93
72414;BME280;60995;52.154;4.498;2023-04-28T11:40:29;100962.38;;;14.83;81.35
72414;BME280;60995;52.154;4.498;2023-04-28T11:42:47;100960.47;;;14.76;82.05
72414;BME280;60995;52.154;4.498;2023-04-28T11:45:04;100968.13;;;14.98;81.06
72414;BME280;60995;52.154;4.498;2023-04-28T11:47:33;100966.75;;;15.02;80.70
72414;BME280;60995;52.154;4.498;2023-04-28T11:49:50;100977.06;;;15.17;80.88
72414;BME280;60995;52.154;4.498;2023-04-28T11:52:07;100973.31;;;15.10;80.88
72414;BME280;60995;52.154;4.498;2023-04-28T11:54:26;100972.25;;;15.11;80.54
72414;BME280;60995;52.154;4.498;2023-04-28T11:56:43;100974.88;;;14.86;80.78
72414;BME280;60995;52.154;4.498;2023-04-28T11:59:05;100970.94;;;14.88;80.87
72414;BME280;60995;52.154;4.498;2023-04-28T12:01:23;100977.66;;;14.94;81.10
72414;BME280;60995;52.154;4.498;2023-04-28T12:06:02;100981.78;;;14.98;80.90
72414;BME280;60995;52.154;4.498;2023-04-28T12:08:28;100981.16;;;15.13;81.30
72414;BME280;60995;52.154;4.498;2023-04-28T12:11:10;100985.41;;;15.07;81.62
72414;BME280;60995;52.154;4.498;2023-04-28T12:13:28;100976.59;;;15.21;81.16
72414;BME280;60995;52.154;4.498;2023-04-28T12:15:44;100974.25;;;15.43;80.30
72414;BME280;60995;52.154;4.498;2023-04-28T12:18:09;100971.78;;;15.15;80.76
72414;BME280;60995;52.154;4.498;2023-04-28T12:20:35;100985.72;;;15.38;80.51
72414;BME280;60995;52.154;4.498;2023-04-28T12:22:53;100977.22;;;15.07;80.40